createdAt,value
2023-03-15T00:02:31.538Z,10.02
2023-03-15T00:05:34.553Z,10.10
2023-03-15T00:08:38.079Z,10.20
2023-03-15T00:11:40.581Z,10.17
2023-03-15T00:14:43.078Z,10.28
2023-03-15T00:17:45.559Z,10.29
2023-03-15T00:20:49.027Z,10.32
2023-03-15T00:23:53.362Z,10.22
2023-03-15T00:26:55.909Z,10.16
2023-03-15T00:29:58.529Z,10.12
2023-03-15T00:33:01.102Z,10.14
2023-03-15T00:36:07.679Z,10.09
2023-03-15T00:39:10.761Z,10.09
2023-03-15T00:42:15.614Z,9.99
2023-03-15T00:45:20.467Z,9.96
2023-03-15T00:48:22.958Z,9.91
2023-03-15T00:51:26.017Z,9.92
2023-03-15T00:54:28.473Z,9.87
2023-03-15T00:57:33.891Z,9.89
2023-03-15T01:00:38.324Z,9.84
2023-03-15T01:03:45.482Z,9.74
2023-03-15T01:06:48.167Z,9.68
2023-03-15T01:09:51.144Z,9.67
2023-03-15T01:12:53.723Z,9.61
2023-03-15T01:15:56.274Z,9.54
2023-03-15T01:18:58.771Z,9.50
2023-03-15T01:22:01.362Z,9.48
2023-03-15T01:25:04.176Z,9.46
2023-03-15T01:28:07.092Z,9.46
2023-03-15T01:31:30.255Z,9.45
2023-03-15T01:34:32.923Z,9.41
2023-03-15T01:37:35.424Z,9.42
2023-03-15T01:40:45.042Z,9.43
2023-03-15T01:43:49.204Z,9.44
2023-03-15T01:46:52.838Z,9.39
2023-03-15T01:50:11.638Z,9.39
2023-03-15T01:53:15.015Z,9.37
2023-03-15T01:56:18.202Z,9.35
2023-03-15T01:59:33.241Z,9.39
2023-03-15T02:02:36.701Z,9.30
2023-03-15T02:05:46.487Z,9.21
2023-03-15T02:09:01.938Z,9.20
2023-03-15T02:12:10.783Z,9.11
2023-03-15T02:15:14.473Z,9.06
2023-03-15T02:18:17.317Z,9.11
2023-03-15T02:21:32.026Z,9.08
2023-03-15T02:24:58.470Z,8.98
2023-03-15T02:28:03.459Z,8.94
2023-03-15T02:31:07.719Z,8.97
2023-03-15T02:34:10.355Z,8.92
2023-03-15T02:37:13.008Z,8.91
2023-03-15T02:40:19.829Z,8.86
2023-03-15T02:43:26.403Z,8.86
2023-03-15T02:46:29.701Z,8.88
2023-03-15T02:49:38.720Z,8.83
2023-03-15T02:52:43.066Z,8.79
2023-03-15T02:55:45.706Z,8.80
2023-03-15T02:58:48.413Z,8.85
2023-03-15T03:01:51.274Z,8.88
2023-03-15T03:04:53.809Z,8.92
2023-03-15T03:07:56.385Z,8.94
2023-03-15T03:10:59.200Z,8.99
2023-03-15T03:14:01.919Z,8.92
2023-03-15T03:17:04.866Z,8.95
2023-03-15T03:20:11.675Z,8.97
2023-03-15T03:23:18.174Z,8.97
2023-03-15T03:26:20.738Z,8.95
2023-03-15T03:29:27.555Z,8.93
2023-03-15T03:32:32.358Z,8.97
2023-03-15T03:35:35.122Z,8.92
2023-03-15T03:38:37.762Z,9.00
2023-03-15T03:41:41.631Z,9.00
2023-03-15T03:44:47.079Z,9.04
2023-03-15T03:47:51.756Z,8.96
2023-03-15T03:50:55.488Z,8.93
2023-03-15T03:53:58.125Z,8.91
2023-03-15T03:57:00.825Z,8.87
2023-03-15T04:00:14.483Z,8.92
2023-03-15T04:03:27.340Z,8.97
2023-03-15T04:06:38.012Z,8.96
2023-03-15T04:09:41.961Z,9.02
2023-03-15T04:12:45.180Z,9.00
2023-03-15T04:15:49.008Z,9.08
2023-03-15T04:18:52.017Z,9.03
2023-03-15T04:21:56.691Z,8.97
2023-03-15T04:25:08.242Z,9.00
2023-03-15T04:28:30.376Z,9.01
2023-03-15T04:31:46.329Z,9.02
2023-03-15T04:35:05.546Z,8.93
2023-03-15T04:38:27.214Z,8.93
2023-03-15T04:41:55.054Z,8.62
2023-03-15T04:45:18.987Z,8.32
2023-03-15T04:48:54.884Z,8.19
2023-03-15T04:52:00.803Z,8.06
2023-03-15T04:55:15.447Z,7.88
2023-03-15T04:58:37.333Z,7.86
2023-03-15T05:02:03.943Z,7.69
2023-03-15T05:05:25.019Z,7.54
2023-03-15T05:08:38.681Z,7.49
2023-03-15T05:12:00.046Z,7.42
2023-03-15T05:15:23.865Z,7.41
2023-03-15T05:18:26.402Z,7.39
2023-03-15T05:22:07.169Z,7.22
2023-03-15T05:25:55.180Z,7.13
2023-03-15T05:29:23.302Z,7.03
2023-03-15T05:32:45.866Z,7.08
2023-03-15T05:36:07.535Z,7.06
2023-03-15T05:39:39.079Z,6.96
2023-03-15T05:43:13.686Z,6.95
2023-03-15T05:46:32.253Z,6.98
2023-03-15T05:50:01.008Z,6.92
2023-03-15T05:53:35.933Z,6.86
2023-03-15T05:57:00.745Z,6.89
2023-03-15T06:00:29.176Z,7.04
2023-03-15T06:03:38.861Z,7.03
2023-03-15T06:06:51.588Z,7.17
2023-03-15T06:09:55.641Z,7.22
2023-03-15T06:12:58.826Z,7.25
2023-03-15T06:16:01.392Z,7.36
2023-03-15T06:19:05.554Z,7.36
2023-03-15T06:22:08.846Z,7.50
2023-03-15T06:25:19.697Z,7.51
2023-03-15T06:28:22.468Z,7.61
2023-03-15T06:31:30.411Z,7.56
2023-03-15T06:34:38.681Z,7.47
2023-03-15T06:37:42.018Z,7.50
2023-03-15T06:40:46.421Z,7.50
2023-03-15T06:43:49.643Z,7.48
2023-03-15T06:46:52.315Z,7.53
2023-03-15T06:50:00.883Z,7.59
2023-03-15T06:53:03.430Z,7.68
2023-03-15T06:56:06.256Z,7.58
2023-03-15T06:59:09.388Z,7.55
2023-03-15T07:02:18.956Z,7.58
2023-03-15T07:05:21.490Z,7.70
2023-03-15T07:08:25.511Z,7.57
2023-03-15T07:11:27.988Z,7.72
2023-03-15T07:14:30.737Z,7.68
2023-03-15T07:17:33.231Z,7.77
2023-03-15T07:20:37.813Z,7.86
2023-03-15T07:23:40.699Z,7.78
2023-03-15T07:26:43.285Z,7.70
2023-03-15T07:29:46.063Z,7.62
2023-03-15T07:32:48.999Z,7.67
2023-03-15T07:35:53.628Z,7.51
2023-03-15T07:38:56.313Z,7.58
2023-03-15T07:41:59.656Z,7.75
2023-03-15T07:45:09.301Z,7.85
2023-03-15T07:48:12.043Z,7.78
2023-03-15T07:51:14.941Z,7.81
2023-03-15T07:54:17.570Z,8.07
2023-03-15T07:57:20.100Z,8.18
2023-03-15T08:00:23.052Z,8.11
2023-03-15T08:03:27.144Z,8.15
2023-03-15T08:06:29.853Z,8.03
2023-03-15T08:09:34.647Z,8.03
2023-03-15T08:12:37.298Z,8.25
2023-03-15T08:15:40.221Z,8.12
2023-03-15T08:18:42.676Z,8.04
2023-03-15T08:21:45.543Z,7.94
2023-03-15T08:24:48.450Z,7.90
2023-03-15T08:27:52.291Z,7.86
2023-03-15T08:30:57.283Z,7.88
2023-03-15T08:33:59.835Z,7.93
2023-03-15T08:37:02.401Z,7.96
2023-03-15T08:40:09.515Z,8.06
2023-03-15T08:43:12.361Z,8.02
2023-03-15T08:46:14.883Z,7.82
2023-03-15T08:49:17.530Z,7.79
2023-03-15T08:52:21.693Z,7.69
2023-03-15T08:55:24.732Z,7.81
2023-03-15T08:58:27.394Z,7.75
2023-03-15T09:01:30.466Z,7.88
2023-03-15T09:04:33.895Z,7.93
2023-03-15T09:07:36.508Z,7.79
2023-03-15T09:10:39.089Z,7.91
2023-03-15T09:13:41.659Z,7.94
2023-03-15T09:16:44.191Z,8.00
2023-03-15T09:19:46.862Z,7.93
2023-03-15T09:22:57.908Z,8.05
2023-03-15T09:26:00.544Z,8.00
2023-03-15T09:29:03.072Z,8.13
2023-03-15T09:32:05.852Z,8.24
2023-03-15T09:35:12.833Z,8.17
2023-03-15T09:38:15.561Z,7.86
2023-03-15T09:41:27.152Z,7.87
2023-03-15T09:44:38.361Z,7.80
2023-03-15T09:47:48.531Z,7.97
2023-03-15T09:51:01.366Z,7.83
2023-03-15T09:54:12.209Z,8.10
2023-03-15T09:57:21.752Z,8.15
2023-03-15T10:00:43.524Z,8.13
2023-03-15T10:03:52.059Z,8.32
2023-03-15T10:06:59.921Z,8.53
2023-03-15T10:10:05.030Z,8.54
2023-03-15T10:13:30.561Z,8.56
2023-03-15T10:16:42.730Z,8.56
2023-03-15T10:19:53.665Z,8.26
2023-03-15T10:23:10.721Z,8.46
2023-03-15T10:26:19.159Z,8.46
2023-03-15T10:29:25.948Z,8.13
2023-03-15T10:32:35.431Z,8.31
2023-03-15T10:35:38.784Z,8.33
2023-03-15T10:38:42.807Z,8.53
2023-03-15T10:41:47.827Z,8.73
2023-03-15T10:44:50.576Z,8.70
2023-03-15T10:48:00.354Z,8.77
2023-03-15T10:51:24.562Z,8.80
2023-03-15T10:54:27.763Z,8.83
2023-03-15T10:57:35.568Z,8.80
2023-03-15T11:00:50.820Z,8.77
2023-03-15T11:04:26.981Z,8.90
2023-03-15T11:07:29.734Z,9.22
2023-03-15T11:10:36.802Z,9.48
2023-03-15T11:13:41.981Z,9.13
2023-03-15T11:16:48.962Z,9.30
2023-03-15T11:20:13.184Z,9.52
2023-03-15T11:23:25.637Z,9.43
2023-03-15T11:26:32.469Z,9.64
2023-03-15T11:29:37.912Z,10.04
2023-03-15T11:32:43.226Z,9.96
2023-03-15T11:35:48.446Z,9.86
2023-03-15T11:38:54.065Z,9.80
2023-03-15T11:42:00.902Z,10.06
2023-03-15T11:45:13.065Z,9.99
2023-03-15T11:48:22.115Z,10.05
2023-03-15T11:51:24.831Z,10.24
2023-03-15T11:54:30.619Z,10.45
2023-03-15T11:57:39.789Z,10.26
2023-03-15T12:00:51.414Z,10.37
2023-03-15T12:04:34.582Z,10.40
2023-03-15T12:07:38.974Z,10.27
2023-03-15T12:10:49.816Z,10.04
2023-03-15T12:13:58.544Z,10.20
2023-03-15T12:17:28.957Z,10.47
2023-03-15T12:20:43.054Z,10.54
2023-03-15T12:23:57.016Z,10.53
2023-03-15T12:27:06.404Z,10.65
2023-03-15T12:30:20.235Z,10.49
2023-03-15T12:33:24.470Z,10.72
2023-03-15T12:36:38.989Z,9.87
2023-03-15T12:39:51.317Z,10.01
2023-03-15T12:42:54.326Z,10.25
2023-03-15T12:45:56.873Z,10.50
2023-03-15T12:49:29.102Z,10.35
2023-03-15T12:52:41.971Z,10.35
2023-03-15T12:55:45.077Z,10.36
2023-03-15T12:58:53.595Z,10.21
2023-03-15T13:01:58.798Z,10.60
2023-03-15T13:05:16.836Z,10.05
2023-03-15T13:08:19.512Z,10.44
2023-03-15T13:11:48.294Z,10.72
2023-03-15T13:15:03.550Z,11.08
2023-03-15T13:18:20.427Z,10.45
2023-03-15T13:21:36.429Z,10.61
2023-03-15T13:24:52.531Z,10.55
2023-03-15T13:28:37.344Z,10.26
2023-03-15T13:31:39.939Z,10.20
2023-03-15T13:34:46.371Z,9.81
2023-03-15T13:37:48.938Z,9.91
2023-03-15T13:40:52.028Z,9.85
2023-03-15T13:43:58.022Z,9.90
2023-03-15T13:47:00.751Z,9.95
2023-03-15T13:50:06.064Z,9.80
2023-03-15T13:53:16.072Z,9.91
2023-03-15T13:56:29.498Z,9.80
2023-03-15T13:59:38.724Z,9.90
2023-03-15T14:02:44.244Z,9.84
2023-03-15T14:05:52.500Z,9.79
2023-03-15T14:09:04.307Z,9.58
2023-03-15T14:12:19.326Z,9.53
2023-03-15T14:15:36.071Z,9.62
2023-03-15T14:18:40.644Z,9.58
2023-03-15T14:21:52.458Z,9.63
2023-03-15T14:24:55.517Z,9.45
2023-03-15T14:28:02.470Z,9.23
2023-03-15T14:31:05.366Z,9.58
2023-03-15T14:34:47.308Z,9.00
2023-03-15T14:38:14.975Z,9.14
2023-03-15T14:41:27.854Z,8.91
2023-03-15T14:44:30.874Z,8.94
2023-03-15T14:47:42.724Z,9.02
2023-03-15T14:50:57.988Z,8.90
2023-03-15T14:54:01.784Z,8.61
2023-03-15T14:57:04.876Z,8.57
2023-03-15T15:00:21.241Z,8.43
2023-03-15T15:03:35.997Z,8.54
2023-03-15T15:06:38.674Z,8.52
2023-03-15T15:09:48.837Z,8.37
2023-03-15T15:13:04.865Z,8.43
2023-03-15T15:16:09.221Z,8.34
2023-03-15T15:19:11.899Z,8.34
2023-03-15T15:22:14.659Z,8.29
2023-03-15T15:25:24.358Z,8.40
2023-03-15T15:28:35.163Z,8.21
2023-03-15T15:31:39.362Z,8.29
2023-03-15T15:34:43.492Z,8.32
2023-03-15T15:37:48.627Z,8.28
2023-03-15T15:40:51.238Z,8.24
2023-03-15T15:43:53.887Z,8.30
2023-03-15T15:46:57.275Z,8.29
2023-03-15T15:49:59.852Z,7.99
2023-03-15T15:53:05.133Z,8.10
2023-03-15T15:56:12.771Z,8.31
2023-03-15T15:59:17.671Z,8.27
2023-03-15T16:02:23.400Z,8.20
2023-03-15T16:05:28.938Z,7.95
2023-03-15T16:08:37.718Z,7.88
2023-03-15T16:11:41.074Z,7.95
2023-03-15T16:14:44.221Z,7.87
2023-03-15T16:17:47.399Z,7.73
2023-03-15T16:20:51.744Z,7.72
2023-03-15T16:24:01.358Z,7.62
2023-03-15T16:27:06.687Z,7.63
2023-03-15T16:30:20.891Z,7.44
2023-03-15T16:33:23.857Z,7.51
2023-03-15T16:36:28.531Z,7.46
2023-03-15T16:39:31.659Z,7.42
2023-03-15T16:42:34.506Z,7.22
2023-03-15T16:45:37.301Z,7.20
2023-03-15T16:48:40.401Z,7.18
2023-03-15T16:51:48.084Z,7.08
2023-03-15T16:54:51.374Z,7.04
2023-03-15T16:57:54.859Z,6.93
2023-03-15T17:00:59.309Z,6.87
2023-03-15T17:04:02.347Z,6.81
2023-03-15T17:07:05.253Z,6.77
2023-03-15T17:10:20.728Z,6.63
2023-03-15T17:13:29.790Z,6.54
2023-03-15T17:16:33.020Z,6.50
2023-03-15T17:19:35.838Z,6.33
2023-03-15T17:22:42.032Z,6.34
2023-03-15T17:25:44.924Z,6.34
2023-03-15T17:28:48.615Z,6.20
2023-03-15T17:31:51.620Z,6.15
2023-03-15T17:34:58.915Z,6.11
2023-03-15T17:38:06.493Z,6.08
2023-03-15T17:41:25.721Z,6.01
2023-03-15T17:44:28.761Z,5.86
2023-03-15T17:47:32.450Z,5.83
2023-03-15T17:50:35.766Z,5.72
2023-03-15T17:53:39.018Z,5.62
2023-03-15T17:56:42.005Z,5.53
2023-03-15T17:59:44.854Z,5.49
2023-03-15T18:02:55.545Z,5.50
2023-03-15T18:06:01.456Z,5.49
2023-03-15T18:09:05.740Z,5.51
2023-03-15T18:12:13.242Z,5.48
2023-03-15T18:15:22.653Z,5.35
2023-03-15T18:18:25.464Z,5.45
2023-03-15T18:21:28.549Z,5.45
2023-03-15T18:24:34.488Z,5.49
2023-03-15T18:27:37.440Z,5.50
2023-03-15T18:30:40.809Z,5.39
2023-03-15T18:33:44.137Z,5.38
2023-03-15T18:36:46.860Z,5.44
2023-03-15T18:39:50.205Z,5.48
2023-03-15T18:42:52.864Z,5.49
2023-03-15T18:45:56.024Z,5.41
2023-03-15T18:48:59.227Z,5.49
2023-03-15T18:52:02.171Z,5.50
2023-03-15T18:55:09.460Z,5.52
2023-03-15T18:58:13.222Z,5.45
2023-03-15T19:01:18.897Z,5.46
2023-03-15T19:04:22.087Z,5.52
2023-03-15T19:07:25.746Z,5.47
2023-03-15T19:10:28.672Z,5.41
2023-03-15T19:13:31.775Z,5.37
2023-03-15T19:16:34.661Z,5.33
2023-03-15T19:19:42.223Z,5.26
2023-03-15T19:22:45.323Z,5.16
2023-03-15T19:25:48.571Z,5.09
2023-03-15T19:28:51.682Z,5.02
2023-03-15T19:31:55.308Z,4.91
2023-03-15T19:34:58.116Z,4.93
2023-03-15T19:38:02.732Z,4.87
2023-03-15T19:41:07.395Z,4.80
2023-03-15T19:44:11.020Z,4.76
2023-03-15T19:47:14.205Z,4.71
2023-03-15T19:50:18.425Z,4.64
2023-03-15T19:53:21.451Z,4.53
2023-03-15T19:56:24.365Z,4.48
2023-03-15T19:59:27.433Z,4.37
2023-03-15T20:02:33.084Z,4.31
2023-03-15T20:05:37.744Z,4.22
2023-03-15T20:08:43.646Z,4.16
2023-03-15T20:11:46.470Z,4.08
2023-03-15T20:14:49.436Z,4.03
2023-03-15T20:17:52.480Z,3.92
2023-03-15T20:20:55.307Z,3.88
2023-03-15T20:23:58.718Z,3.83
2023-03-15T20:27:02.086Z,3.93
2023-03-15T20:30:07.551Z,4.00
2023-03-15T20:33:10.680Z,4.05
2023-03-15T20:36:14.818Z,4.21
2023-03-15T20:39:18.499Z,4.25
2023-03-15T20:42:22.767Z,4.36
2023-03-15T20:45:25.944Z,4.38
2023-03-15T20:48:30.677Z,4.49
2023-03-15T20:51:33.438Z,4.53
2023-03-15T20:54:36.948Z,4.52
2023-03-15T20:57:42.646Z,4.62
2023-03-15T21:00:45.508Z,4.72
2023-03-15T21:03:48.630Z,4.77
2023-03-15T21:06:51.150Z,4.76
2023-03-15T21:09:53.930Z,4.83
2023-03-15T21:12:56.837Z,4.81
2023-03-15T21:16:00.531Z,4.91
2023-03-15T21:19:03.680Z,4.82
2023-03-15T21:22:06.473Z,4.88
2023-03-15T21:25:10.343Z,4.81
2023-03-15T21:28:13.096Z,4.89
2023-03-15T21:31:16.255Z,4.89
2023-03-15T21:34:19.265Z,4.88
2023-03-15T21:37:22.231Z,4.83
2023-03-15T21:40:25.335Z,4.88
2023-03-15T21:43:30.818Z,4.89
2023-03-15T21:46:34.020Z,4.82
2023-03-15T21:49:37.222Z,4.83
2023-03-15T21:52:40.192Z,4.86
2023-03-15T21:55:46.230Z,4.90
2023-03-15T21:58:48.927Z,4.84
2023-03-15T22:01:51.581Z,4.82
2023-03-15T22:04:54.284Z,4.80
2023-03-15T22:07:56.889Z,4.78
2023-03-15T22:10:59.723Z,4.86
2023-03-15T22:14:02.861Z,4.88
2023-03-15T22:17:05.824Z,4.82
2023-03-15T22:20:14.020Z,4.81
2023-03-15T22:23:18.371Z,4.73
2023-03-15T22:26:22.496Z,4.71
2023-03-15T22:29:25.256Z,4.55
2023-03-15T22:32:28.151Z,4.49
2023-03-15T22:35:30.929Z,4.43
2023-03-15T22:38:38.125Z,4.44
2023-03-15T22:41:41.118Z,4.43
2023-03-15T22:44:45.853Z,4.36
2023-03-15T22:47:49.410Z,4.33
2023-03-15T22:51:06.317Z,4.26
2023-03-15T22:54:10.273Z,4.20
2023-03-15T22:57:12.745Z,4.21
2023-03-15T23:00:21.026Z,4.16
2023-03-15T23:03:23.747Z,4.07
2023-03-15T23:06:26.405Z,4.02
2023-03-15T23:09:29.187Z,4.03
2023-03-15T23:12:36.530Z,4.04
2023-03-15T23:15:39.745Z,4.01
2023-03-15T23:18:42.953Z,3.93
2023-03-15T23:21:45.760Z,3.82
2023-03-15T23:24:48.490Z,3.83
2023-03-15T23:27:51.414Z,3.80
2023-03-15T23:30:54.365Z,3.69
2023-03-15T23:33:56.887Z,3.39
2023-03-15T23:36:59.387Z,3.25
2023-03-15T23:40:02.575Z,3.19
2023-03-15T23:43:05.955Z,3.19
2023-03-15T23:46:09.954Z,3.19
2023-03-15T23:49:12.871Z,3.19
2023-03-15T23:52:15.449Z,3.25
2023-03-15T23:55:18.634Z,3.24
2023-03-15T23:58:21.385Z,3.42
